Time;durP1;ratioP1;P1;durP2;ratioP2;P2;SDS_P1;SDS_P2;PMS_P1;PMS_P2;Temp;Humidity;BMP_temperature;BMP_pressure;BME280_temperature;BME280_humidity;BME280_pressure;Samples;Min_cycle;Max_cycle;Signal;HPM_P1;HPM_P2
2022/09/30 00:00:06;;;;;;;;;;;8.40;99.90;;;;;;5092812;28;19912;-74
2022/09/30 00:02:32;;;;;;;;;;;8.50;99.90;;;;;;5096172;28;19916;-75
2022/09/30 00:04:57;;;;;;;;;;;8.40;99.90;;;;;;5090621;28;19923;-75
2022/09/30 00:07:23;;;;;;;;;;;8.50;99.90;;;;;;5099083;28;19912;-74
2022/09/30 00:09:49;;;;;;;;;;;8.50;99.90;;;;;;5091803;28;19986;-75
2022/09/30 00:12:15;;;;;;;;;;;8.50;99.90;;;;;;5092777;28;19939;-75
2022/09/30 00:14:40;;;;;;;;;;;8.40;99.90;;;;;;5098786;28;20277;-76
2022/09/30 00:17:07;;;;;;;;;;;8.30;99.90;;;;;;5082540;28;19912;-74
2022/09/30 00:19:33;;;;;;;;;;;8.20;99.90;;;;;;5084904;28;19983;-74
2022/09/30 00:21:58;;;;;;;;;;;8.20;99.90;;;;;;5076128;28;21066;-75
2022/09/30 00:24:24;;;;;;;;;;;8.10;99.90;;;;;;5075320;28;19917;-75
2022/09/30 00:26:49;;;;;;;;;;;8.10;99.90;;;;;;5075075;28;19920;-75
2022/09/30 00:29:15;;;;;;;;;;;8.10;99.90;;;;;;5098619;28;19920;-75
2022/09/30 00:31:40;;;;;;;;;;;8.30;99.90;;;;;;5100982;28;19912;-75
2022/09/30 00:34:06;;;;;;;;;;;8.20;99.90;;;;;;5086967;28;19980;-77
2022/09/30 00:36:43;;;;;;;;;;;8.10;99.90;;;;;;5080959;28;19919;-75
2022/09/30 00:39:10;;;;;;;;;;;8.20;99.90;;;;;;5085605;28;19923;-75
2022/09/30 00:41:36;;;;;;;;;;;8.10;99.90;;;;;;5090629;28;19920;-74
2022/09/30 00:44:22;;;;;;;;;;;8.00;99.90;;;;;;5088720;28;19958;-75
2022/09/30 00:46:48;;;;;;;;;;;7.90;99.90;;;;;;5097158;28;19931;-74
2022/09/30 00:49:19;;;;;;;;;;;7.90;99.90;;;;;;5085256;28;19916;-75
2022/09/30 00:51:47;;;;;;;;;;;7.80;99.90;;;;;;5098768;28;19920;-75
2022/09/30 00:54:15;;;;;;;;;;;7.90;99.90;;;;;;5105517;28;19919;-75
2022/09/30 00:56:43;;;;;;;;;;;7.90;99.90;;;;;;5097405;28;19919;-74
2022/09/30 00:59:13;;;;;;;;;;;7.90;99.90;;;;;;5099724;28;19934;-75
2022/09/30 01:01:40;;;;;;;;;;;7.90;99.90;;;;;;5087291;28;19917;-75
2022/09/30 01:04:14;;;;;;;;;;;7.90;99.90;;;;;;5099576;28;21114;-74
2022/09/30 01:06:40;;;;;;;;;;;7.80;99.90;;;;;;5095779;28;20018;-76
2022/09/30 01:09:06;;;;;;;;;;;7.70;99.90;;;;;;5100303;28;19940;-76
2022/09/30 01:11:31;;;;;;;;;;;7.80;99.90;;;;;;5099970;28;19908;-75
2022/09/30 01:13:59;;;;;;;;;;;7.80;99.90;;;;;;5099255;28;20005;-74
2022/09/30 01:16:25;;;;;;;;;;;7.80;99.90;;;;;;5099148;28;19921;-75
2022/09/30 01:19:09;;;;;;;;;;;7.70;99.90;;;;;;5082073;28;19912;-75
2022/09/30 01:21:53;;;;;;;;;;;7.60;99.90;;;;;;5080775;28;20336;-75
2022/09/30 01:24:27;;;;;;;;;;;7.70;99.90;;;;;;5082456;28;19948;-74
2022/09/30 01:26:53;;;;;;;;;;;7.70;99.90;;;;;;5092664;28;19938;-74
2022/09/30 01:29:40;;;;;;;;;;;7.60;99.90;;;;;;5105850;28;19904;-75
2022/09/30 01:32:12;;;;;;;;;;;7.50;99.90;;;;;;5101578;28;19916;-75
2022/09/30 01:34:49;;;;;;;;;;;7.50;99.90;;;;;;5100429;28;19900;-75
2022/09/30 01:37:15;;;;;;;;;;;7.50;99.90;;;;;;5098596;28;19912;-74
2022/09/30 01:39:46;;;;;;;;;;;7.50;99.90;;;;;;5094353;28;20046;-75
2022/09/30 01:42:17;;;;;;;;;;;7.50;99.90;;;;;;5102027;28;19900;-75
2022/09/30 01:45:02;;;;;;;;;;;7.50;99.90;;;;;;5095953;28;19931;-75
2022/09/30 01:47:30;;;;;;;;;;;7.40;99.90;;;;;;5096481;28;19923;-75
2022/09/30 01:50:02;;;;;;;;;;;7.50;99.90;;;;;;5089424;28;19912;-75
2022/09/30 01:52:38;;;;;;;;;;;7.50;99.90;;;;;;5094788;28;19916;-73
2022/09/30 01:55:06;;;;;;;;;;;7.40;99.90;;;;;;5095039;28;19912;-73
2022/09/30 01:57:38;;;;;;;;;;;7.30;99.90;;;;;;5097528;28;19900;-74
2022/09/30 02:00:06;;;;;;;;;;;7.40;99.90;;;;;;5095361;28;19912;-74
2022/09/30 02:02:34;;;;;;;;;;;7.50;99.90;;;;;;5099809;28;19926;-74
2022/09/30 02:05:04;;;;;;;;;;;7.40;99.90;;;;;;5082990;28;19916;-75
2022/09/30 02:07:33;;;;;;;;;;;7.40;99.90;;;;;;5086703;28;19976;-75
2022/09/30 02:10:01;;;;;;;;;;;7.30;99.90;;;;;;5098801;28;19912;-73
2022/09/30 02:12:30;;;;;;;;;;;7.30;99.90;;;;;;5095618;28;19963;-75
2022/09/30 02:15:02;;;;;;;;;;;7.20;99.90;;;;;;5095304;28;20027;-74
2022/09/30 02:17:43;;;;;;;;;;;7.20;99.90;;;;;;5099298;28;19915;-74
2022/09/30 02:20:14;;;;;;;;;;;7.30;99.90;;;;;;5096218;28;19919;-75
2022/09/30 02:22:45;;;;;;;;;;;7.30;99.90;;;;;;5091189;28;19935;-75
2022/09/30 02:25:24;;;;;;;;;;;7.20;99.90;;;;;;5089996;28;19943;-74
2022/09/30 02:27:58;;;;;;;;;;;7.10;99.90;;;;;;5100507;28;19913;-74
2022/09/30 02:30:23;;;;;;;;;;;7.10;99.90;;;;;;5090639;28;19947;-73
2022/09/30 02:33:00;;;;;;;;;;;7.10;99.90;;;;;;5079674;28;19998;-75
2022/09/30 02:35:27;;;;;;;;;;;7.00;99.90;;;;;;5089071;28;19908;-74
2022/09/30 02:37:58;;;;;;;;;;;7.00;99.90;;;;;;5085964;28;19909;-74
2022/09/30 02:40:23;;;;;;;;;;;7.00;99.90;;;;;;5098405;28;19923;-75
2022/09/30 02:42:49;;;;;;;;;;;7.00;99.90;;;;;;5101060;28;20192;-75
2022/09/30 02:45:16;;;;;;;;;;;6.90;99.90;;;;;;5102630;28;19919;-75
2022/09/30 02:48:20;;;;;;;;;;;6.90;99.90;;;;;;5101363;28;19916;-75
2022/09/30 02:50:50;;;;;;;;;;;6.90;99.90;;;;;;5002045;28;20114;-74
2022/09/30 02:53:31;;;;;;;;;;;7.00;99.90;;;;;;5003320;28;19934;-75
2022/09/30 02:56:09;;;;;;;;;;;7.00;99.90;;;;;;5053193;28;19990;-74
2022/09/30 02:58:38;;;;;;;;;;;6.90;99.90;;;;;;5088834;28;19947;-75
2022/09/30 03:01:08;;;;;;;;;;;6.90;99.90;;;;;;5082722;28;19912;-74
2022/09/30 03:03:37;;;;;;;;;;;6.80;99.90;;;;;;5082437;28;19930;-74
2022/09/30 03:06:23;;;;;;;;;;;6.80;99.90;;;;;;5073343;28;19917;-75
2022/09/30 03:08:50;;;;;;;;;;;6.80;99.90;;;;;;5082586;28;19923;-74
2022/09/30 03:11:21;;;;;;;;;;;6.70;99.90;;;;;;5095959;28;19912;-75
2022/09/30 03:14:01;;;;;;;;;;;6.70;99.90;;;;;;5094129;28;19912;-73
2022/09/30 03:16:48;;;;;;;;;;;6.60;99.90;;;;;;5090973;28;19969;-74
2022/09/30 03:19:16;;;;;;;;;;;6.50;99.90;;;;;;5084057;28;19912;-75
2022/09/30 03:21:42;;;;;;;;;;;6.60;99.90;;;;;;5090648;28;19916;-74
2022/09/30 03:24:17;;;;;;;;;;;6.60;99.90;;;;;;5089860;28;19947;-74
2022/09/30 03:26:51;;;;;;;;;;;6.60;99.90;;;;;;5073236;28;19956;-74
2022/09/30 03:29:36;;;;;;;;;;;6.60;99.90;;;;;;5074446;28;19923;-73
2022/09/30 03:32:11;;;;;;;;;;;6.50;99.90;;;;;;5088087;28;19916;-74
2022/09/30 03:34:43;;;;;;;;;;;6.40;99.90;;;;;;5092778;28;19912;-75
2022/09/30 03:37:14;;;;;;;;;;;6.40;99.90;;;;;;5090687;28;19920;-74
2022/09/30 03:39:53;;;;;;;;;;;6.30;99.90;;;;;;5090694;28;19955;-74
2022/09/30 03:42:25;;;;;;;;;;;6.20;99.90;;;;;;5088620;28;19927;-74
2022/09/30 03:45:07;;;;;;;;;;;6.10;99.90;;;;;;5083181;28;19925;-74
2022/09/30 03:47:34;;;;;;;;;;;6.20;99.90;;;;;;5075943;28;19966;-74
2022/09/30 03:50:02;;;;;;;;;;;6.20;99.90;;;;;;5082138;28;19927;-75
2022/09/30 03:52:29;;;;;;;;;;;6.30;99.90;;;;;;5090508;28;19913;-75
2022/09/30 03:54:59;;;;;;;;;;;6.40;99.90;;;;;;5091115;28;19947;-75
2022/09/30 03:57:27;;;;;;;;;;;6.50;99.90;;;;;;5090745;28;19958;-74
2022/09/30 03:59:53;;;;;;;;;;;6.50;99.90;;;;;;5100062;28;19973;-74
2022/09/30 04:02:18;;;;;;;;;;;6.50;99.90;;;;;;5100879;28;19944;-75
2022/09/30 04:04:44;;;;;;;;;;;6.60;99.90;;;;;;5100630;27;19928;-74
2022/09/30 04:07:10;;;;;;;;;;;6.60;99.90;;;;;;5093504;28;19923;-74
2022/09/30 04:09:39;;;;;;;;;;;6.60;99.90;;;;;;5083781;28;19953;-74
2022/09/30 04:12:04;;;;;;;;;;;6.40;99.90;;;;;;5079852;28;19912;-74
2022/09/30 04:14:32;;;;;;;;;;;6.30;99.90;;;;;;5077682;28;20467;-75
2022/09/30 04:16:57;;;;;;;;;;;6.30;99.90;;;;;;5089855;28;19923;-74
2022/09/30 04:19:23;;;;;;;;;;;6.30;99.90;;;;;;5090456;28;19912;-74
2022/09/30 04:21:52;;;;;;;;;;;6.40;99.90;;;;;;5090361;28;19987;-74
2022/09/30 04:24:18;;;;;;;;;;;6.30;99.90;;;;;;5092273;28;19924;-74
2022/09/30 04:26:44;;;;;;;;;;;6.40;99.90;;;;;;5094422;28;19926;-74
2022/09/30 04:29:09;;;;;;;;;;;6.50;99.90;;;;;;5096726;28;19999;-74
2022/09/30 04:31:35;;;;;;;;;;;6.50;99.90;;;;;;5082032;28;19939;-74
2022/09/30 04:34:01;;;;;;;;;;;6.50;99.90;;;;;;5091863;28;19896;-75
2022/09/30 04:36:26;;;;;;;;;;;6.50;99.90;;;;;;5098888;28;19912;-74
2022/09/30 04:38:52;;;;;;;;;;;6.50;99.90;;;;;;5100626;28;19912;-74
2022/09/30 04:41:18;;;;;;;;;;;6.50;99.90;;;;;;5108552;28;19972;-76
2022/09/30 04:43:45;;;;;;;;;;;6.50;99.90;;;;;;5100134;28;19919;-76
2022/09/30 04:46:21;;;;;;;;;;;6.50;99.90;;;;;;5102987;28;20019;-75
2022/09/30 04:48:47;;;;;;;;;;;6.60;99.90;;;;;;5092142;28;19918;-75
2022/09/30 04:51:13;;;;;;;;;;;6.50;99.90;;;;;;5081284;28;19943;-75
2022/09/30 04:53:39;;;;;;;;;;;6.60;99.90;;;;;;5077756;28;19916;-74
2022/09/30 04:56:05;;;;;;;;;;;6.50;99.90;;;;;;5091839;28;20365;-73
2022/09/30 04:58:31;;;;;;;;;;;6.70;99.90;;;;;;5105210;28;19917;-76
2022/09/30 05:01:06;;;;;;;;;;;6.70;99.90;;;;;;5091053;28;19916;-74
2022/09/30 05:03:32;;;;;;;;;;;6.80;99.90;;;;;;5091249;28;20011;-75
2022/09/30 05:05:57;;;;;;;;;;;6.80;99.90;;;;;;5090085;28;19923;-74
2022/09/30 05:08:23;;;;;;;;;;;6.80;99.90;;;;;;5089556;28;19912;-74
2022/09/30 05:10:53;;;;;;;;;;;6.90;99.90;;;;;;5097005;28;19991;-74
2022/09/30 05:13:19;;;;;;;;;;;6.90;99.90;;;;;;5097523;28;19923;-74
2022/09/30 05:15:47;;;;;;;;;;;6.80;99.90;;;;;;5100734;28;19936;-75
2022/09/30 05:18:12;;;;;;;;;;;6.80;99.90;;;;;;5097527;28;19912;-74
2022/09/30 05:20:38;;;;;;;;;;;6.80;99.90;;;;;;5101603;28;20494;-75
2022/09/30 05:23:05;;;;;;;;;;;6.90;99.90;;;;;;5092520;28;20007;-75
2022/09/30 05:25:30;;;;;;;;;;;6.90;99.90;;;;;;5096364;28;19923;-74
2022/09/30 05:27:56;;;;;;;;;;;6.90;99.90;;;;;;5089927;28;19916;-76
2022/09/30 05:30:21;;;;;;;;;;;6.90;99.90;;;;;;5094096;28;20460;-73
2022/09/30 05:32:47;;;;;;;;;;;6.90;99.90;;;;;;5089960;28;19939;-74
2022/09/30 05:35:13;;;;;;;;;;;6.80;99.90;;;;;;5095490;28;19912;-74
2022/09/30 05:37:39;;;;;;;;;;;6.90;99.90;;;;;;5091159;28;19919;-74
2022/09/30 05:40:05;;;;;;;;;;;7.00;99.90;;;;;;5090400;28;19920;-75
2022/09/30 05:42:31;;;;;;;;;;;6.90;99.90;;;;;;5092389;28;19983;-75
2022/09/30 05:44:57;;;;;;;;;;;6.90;99.90;;;;;;5090474;28;19924;-75
2022/09/30 05:47:23;;;;;;;;;;;6.70;99.90;;;;;;5094867;28;19921;-75
2022/09/30 05:49:49;;;;;;;;;;;6.80;99.90;;;;;;5093708;28;19916;-75
2022/09/30 05:52:14;;;;;;;;;;;6.80;99.90;;;;;;5089306;28;19962;-75
2022/09/30 05:54:40;;;;;;;;;;;6.70;99.90;;;;;;5093132;28;19912;-75
2022/09/30 05:57:06;;;;;;;;;;;6.70;99.90;;;;;;5094617;28;19916;-77
2022/09/30 05:59:32;;;;;;;;;;;6.70;99.90;;;;;;5100347;28;19944;-75
2022/09/30 06:01:57;;;;;;;;;;;6.70;99.90;;;;;;5090474;28;19928;-75
2022/09/30 06:04:24;;;;;;;;;;;6.70;99.90;;;;;;5092567;28;19985;-76
2022/09/30 06:06:49;;;;;;;;;;;6.80;99.90;;;;;;5085831;28;19995;-76
2022/09/30 06:09:15;;;;;;;;;;;6.80;99.90;;;;;;5096026;28;19912;-76
2022/09/30 06:11:41;;;;;;;;;;;6.70;99.90;;;;;;5100642;28;19938;-75
2022/09/30 06:14:07;;;;;;;;;;;6.70;99.90;;;;;;5089588;28;19913;-73
2022/09/30 06:16:32;;;;;;;;;;;6.50;99.90;;;;;;5100839;27;19920;-76
2022/09/30 06:18:58;;;;;;;;;;;6.60;99.90;;;;;;5096743;28;19904;-76
2022/09/30 06:21:24;;;;;;;;;;;6.60;99.90;;;;;;5100073;28;19904;-74
2022/09/30 06:23:49;;;;;;;;;;;6.60;99.90;;;;;;5101640;28;20804;-76
2022/09/30 06:26:15;;;;;;;;;;;6.70;99.90;;;;;;5099223;28;19904;-74
2022/09/30 06:28:41;;;;;;;;;;;6.70;99.90;;;;;;5092356;28;19920;-73
2022/09/30 06:31:07;;;;;;;;;;;6.70;99.90;;;;;;5091487;28;19930;-76
2022/09/30 06:33:32;;;;;;;;;;;6.70;99.90;;;;;;5098972;28;19951;-76
2022/09/30 06:36:01;;;;;;;;;;;6.80;99.90;;;;;;5097539;28;19908;-75
2022/09/30 06:38:27;;;;;;;;;;;6.70;99.90;;;;;;5103456;28;19920;-73
2022/09/30 06:40:53;;;;;;;;;;;6.70;99.90;;;;;;5088153;28;19912;-75
2022/09/30 06:43:18;;;;;;;;;;;6.80;99.90;;;;;;5100058;27;19975;-76
2022/09/30 06:45:47;;;;;;;;;;;6.80;99.90;;;;;;5093641;28;19911;-75
2022/09/30 06:48:12;;;;;;;;;;;6.90;99.90;;;;;;5104259;28;19920;-75
2022/09/30 06:50:38;;;;;;;;;;;6.70;99.90;;;;;;5100588;28;19904;-75
2022/09/30 06:53:05;;;;;;;;;;;6.70;99.90;;;;;;5090862;28;19911;-75
2022/09/30 06:55:32;;;;;;;;;;;6.70;99.90;;;;;;5105744;28;19932;-76
2022/09/30 06:57:58;;;;;;;;;;;6.70;99.90;;;;;;5097247;28;19904;-75
2022/09/30 07:00:24;;;;;;;;;;;6.80;99.90;;;;;;5082096;28;19922;-75
2022/09/30 07:02:58;;;;;;;;;;;6.90;99.90;;;;;;5078920;28;20342;-77
2022/09/30 07:05:26;;;;;;;;;;;7.00;99.90;;;;;;5083223;28;19917;-78
2022/09/30 07:07:52;;;;;;;;;;;7.10;99.90;;;;;;5088338;28;20258;-78
2022/09/30 07:10:20;;;;;;;;;;;7.30;99.90;;;;;;5070236;28;19917;-78
2022/09/30 07:12:51;;;;;;;;;;;7.30;99.90;;;;;;5077772;28;20163;-78
2022/09/30 07:15:20;;;;;;;;;;;7.50;99.90;;;;;;5087243;28;19923;-79
2022/09/30 07:17:49;;;;;;;;;;;7.50;99.90;;;;;;5077608;28;20277;-78
2022/09/30 07:20:15;;;;;;;;;;;7.80;99.90;;;;;;5090761;28;20274;-77
2022/09/30 07:22:41;;;;;;;;;;;7.90;99.90;;;;;;5083193;28;19913;-78
2022/09/30 07:25:08;;;;;;;;;;;7.90;99.90;;;;;;5086123;28;20339;-76
2022/09/30 07:27:34;;;;;;;;;;;8.00;99.90;;;;;;5081492;28;19983;-77
2022/09/30 07:30:01;;;;;;;;;;;8.00;99.90;;;;;;5088297;28;20385;-76
2022/09/30 07:32:26;;;;;;;;;;;8.10;99.90;;;;;;5087948;28;19919;-77
2022/09/30 07:34:52;;;;;;;;;;;8.20;99.90;;;;;;5083439;28;20062;-77
2022/09/30 07:37:18;;;;;;;;;;;8.10;99.90;;;;;;5087414;28;19987;-77
2022/09/30 07:39:44;;;;;;;;;;;8.20;99.90;;;;;;5086248;28;19923;-78
2022/09/30 07:42:10;;;;;;;;;;;8.30;99.90;;;;;;5090565;28;20384;-77
2022/09/30 07:44:40;;;;;;;;;;;8.30;99.90;;;;;;5081367;28;20011;-79
2022/09/30 07:47:06;;;;;;;;;;;8.30;99.90;;;;;;5079507;28;20366;-77
2022/09/30 07:49:33;;;;;;;;;;;8.30;99.90;;;;;;5076505;28;19912;-78
2022/09/30 07:51:59;;;;;;;;;;;8.30;99.90;;;;;;5089904;28;19912;-78
2022/09/30 07:54:26;;;;;;;;;;;8.40;99.90;;;;;;5081723;28;19904;-77
2022/09/30 07:56:52;;;;;;;;;;;8.40;99.90;;;;;;5081208;28;20310;-76
2022/09/30 07:59:18;;;;;;;;;;;8.40;99.90;;;;;;5076993;28;20056;-78
2022/09/30 08:01:46;;;;;;;;;;;8.60;99.90;;;;;;5082419;28;19916;-77
2022/09/30 08:04:12;;;;;;;;;;;8.60;99.90;;;;;;5083395;28;19923;-76
2022/09/30 08:06:39;;;;;;;;;;;8.70;99.90;;;;;;5090546;28;20003;-77
2022/09/30 08:09:05;;;;;;;;;;;8.80;99.90;;;;;;5082526;28;19919;-77
2022/09/30 08:11:35;;;;;;;;;;;9.00;99.90;;;;;;5081930;28;19956;-78
2022/09/30 08:14:01;;;;;;;;;;;9.10;99.90;;;;;;5078135;28;19912;-77
2022/09/30 08:16:26;;;;;;;;;;;9.20;99.90;;;;;;5072744;28;19913;-77
2022/09/30 08:18:58;;;;;;;;;;;9.30;99.90;;;;;;5076453;28;19913;-78
2022/09/30 08:21:24;;;;;;;;;;;9.40;99.90;;;;;;5080635;28;19913;-78
2022/09/30 08:23:50;;;;;;;;;;;9.60;99.90;;;;;;5094792;28;20018;-78
2022/09/30 08:26:16;;;;;;;;;;;9.70;99.90;;;;;;5082439;28;20019;-78
2022/09/30 08:28:42;;;;;;;;;;;9.70;99.90;;;;;;5077410;28;19940;-78
2022/09/30 08:31:10;;;;;;;;;;;9.90;99.90;;;;;;5082900;28;19965;-77
2022/09/30 08:33:35;;;;;;;;;;;9.90;99.90;;;;;;5072056;28;19921;-76
2022/09/30 08:36:02;;;;;;;;;;;10.20;99.90;;;;;;5100526;28;20052;-77
2022/09/30 08:38:28;;;;;;;;;;;10.40;99.90;;;;;;5084362;28;19923;-78
2022/09/30 08:41:00;;;;;;;;;;;10.60;99.90;;;;;;5089505;28;20091;-78
2022/09/30 08:43:30;;;;;;;;;;;10.70;99.90;;;;;;5103520;28;20308;-76
2022/09/30 08:46:10;;;;;;;;;;;10.70;99.90;;;;;;5081006;28;20333;-76
2022/09/30 08:48:55;;;;;;;;;;;10.80;99.90;;;;;;5081853;28;19909;-77
2022/09/30 08:51:32;;;;;;;;;;;10.90;99.90;;;;;;5087523;28;19912;-77
2022/09/30 08:54:01;;;;;;;;;;;10.90;99.90;;;;;;5084690;28;19920;-76
2022/09/30 08:56:29;;;;;;;;;;;11.00;99.90;;;;;;5087908;28;20436;-77
2022/09/30 08:59:05;;;;;;;;;;;11.10;99.90;;;;;;5094525;28;19912;-76
2022/09/30 09:01:32;;;;;;;;;;;11.10;99.90;;;;;;5084006;28;19927;-79
2022/09/30 09:03:59;;;;;;;;;;;11.30;99.90;;;;;;5083123;28;19920;-76
2022/09/30 09:06:43;;;;;;;;;;;11.40;99.90;;;;;;5084393;28;20517;-77
2022/09/30 09:09:33;;;;;;;;;;;11.50;99.90;;;;;;5092783;28;19912;-77
2022/09/30 09:12:01;;;;;;;;;;;11.80;99.90;;;;;;5096988;28;19912;-76
2022/09/30 09:14:27;;;;;;;;;;;12.10;99.90;;;;;;5074143;28;19912;-78
2022/09/30 09:16:52;;;;;;;;;;;12.40;99.90;;;;;;5096748;28;19912;-77
2022/09/30 09:19:21;;;;;;;;;;;12.50;99.90;;;;;;5096476;28;19912;-76
2022/09/30 09:21:58;;;;;;;;;;;12.60;99.90;;;;;;5101688;28;19912;-77
2022/09/30 09:24:25;;;;;;;;;;;12.70;99.90;;;;;;5092819;28;20407;-79
2022/09/30 09:26:52;;;;;;;;;;;12.90;99.90;;;;;;5104387;28;19921;-77
2022/09/30 09:29:36;;;;;;;;;;;13.00;99.90;;;;;;5109660;28;19900;-77
2022/09/30 09:32:05;;;;;;;;;;;13.10;99.90;;;;;;5098135;28;19988;-77
2022/09/30 09:34:31;;;;;;;;;;;13.10;99.90;;;;;;5093624;28;19920;-77
2022/09/30 09:37:04;;;;;;;;;;;13.20;99.90;;;;;;5106773;28;19947;-77
2022/09/30 09:39:29;;;;;;;;;;;13.40;99.90;;;;;;5104143;28;19912;-78
2022/09/30 09:42:06;;;;;;;;;;;13.50;99.90;;;;;;5094810;28;19916;-76
2022/09/30 09:44:50;;;;;;;;;;;13.60;99.90;;;;;;5082779;28;19932;-76
2022/09/30 09:47:16;;;;;;;;;;;13.70;99.90;;;;;;5097760;28;19926;-77
2022/09/30 09:49:45;;;;;;;;;;;13.90;99.90;;;;;;5106593;28;19917;-76
2022/09/30 09:52:11;;;;;;;;;;;14.00;99.90;;;;;;5098201;28;19913;-77
2022/09/30 09:54:44;;;;;;;;;;;14.10;99.90;;;;;;5091754;28;19916;-75
2022/09/30 09:57:11;;;;;;;;;;;14.20;99.90;;;;;;5106507;28;19988;-75
2022/09/30 09:59:38;;;;;;;;;;;14.30;99.90;;;;;;5092111;28;19913;-77
2022/09/30 10:02:21;;;;;;;;;;;14.40;99.90;;;;;;5087654;28;20015;-78
2022/09/30 10:04:49;;;;;;;;;;;14.40;99.90;;;;;;5089232;28;19920;-76
2022/09/30 10:07:19;;;;;;;;;;;14.50;99.90;;;;;;5090467;28;19912;-76
2022/09/30 10:09:44;;;;;;;;;;;14.60;99.90;;;;;;5097204;28;19949;-77
2022/09/30 10:12:10;;;;;;;;;;;14.50;99.90;;;;;;5094143;28;19939;-77
2022/09/30 10:14:45;;;;;;;;;;;14.60;99.90;;;;;;5099182;28;19919;-77
2022/09/30 10:17:37;;;;;;;;;;;14.80;99.90;;;;;;5097133;28;19926;-76
2022/09/30 10:20:06;;;;;;;;;;;14.80;99.90;;;;;;5093789;28;19912;-76
2022/09/30 10:22:32;;;;;;;;;;;14.80;99.90;;;;;;5101236;28;19987;-77
2022/09/30 10:25:10;;;;;;;;;;;14.70;99.90;;;;;;5097113;28;19924;-76
2022/09/30 10:27:35;;;;;;;;;;;14.70;99.90;;;;;;5094408;28;19912;-76
2022/09/30 10:30:01;;;;;;;;;;;14.80;99.90;;;;;;5093797;28;19912;-77
2022/09/30 10:32:28;;;;;;;;;;;15.00;99.90;;;;;;5096762;28;19912;-77
2022/09/30 10:35:02;;;;;;;;;;;15.10;99.90;;;;;;5094394;28;19987;-77
2022/09/30 10:37:28;;;;;;;;;;;15.20;99.90;;;;;;5094948;28;19933;-76
2022/09/30 10:40:02;;;;;;;;;;;15.10;99.90;;;;;;5102209;28;19932;-77
2022/09/30 10:42:29;;;;;;;;;;;15.10;99.90;;;;;;5096419;28;19919;-79
2022/09/30 10:44:55;;;;;;;;;;;15.20;99.90;;;;;;5102996;28;19931;-78
2022/09/30 10:47:22;;;;;;;;;;;15.40;99.90;;;;;;5090831;28;19913;-79
2022/09/30 10:49:49;;;;;;;;;;;15.40;99.90;;;;;;5096584;28;19954;-76
2022/09/30 10:52:19;;;;;;;;;;;15.40;99.90;;;;;;5085677;28;19917;-78
2022/09/30 10:54:55;;;;;;;;;;;15.60;99.90;;;;;;5086891;28;19951;-78
2022/09/30 10:57:31;;;;;;;;;;;15.70;99.90;;;;;;5095118;28;19921;-77
2022/09/30 10:59:59;;;;;;;;;;;15.80;99.90;;;;;;5088407;28;20013;-77
2022/09/30 11:02:28;;;;;;;;;;;15.90;99.90;;;;;;5090936;28;19916;-77
2022/09/30 11:05:12;;;;;;;;;;;15.80;99.90;;;;;;5089543;28;19927;-77
2022/09/30 11:07:44;;;;;;;;;;;15.80;99.90;;;;;;5082191;28;19920;-77
2022/09/30 11:10:25;;;;;;;;;;;15.70;99.90;;;;;;5071404;28;20372;-77
2022/09/30 11:12:55;;;;;;;;;;;15.70;99.90;;;;;;5086735;28;20106;-76
2022/09/30 11:15:24;;;;;;;;;;;15.80;99.90;;;;;;5072253;28;20287;-77
2022/09/30 11:17:53;;;;;;;;;;;15.80;99.90;;;;;;5076859;28;19913;-77
2022/09/30 11:20:25;;;;;;;;;;;15.90;99.90;;;;;;5076964;28;19916;-76
2022/09/30 11:23:01;;;;;;;;;;;16.10;99.90;;;;;;5076203;28;20035;-77
2022/09/30 11:25:37;;;;;;;;;;;16.00;99.90;;;;;;5085279;28;20018;-79
2022/09/30 11:28:12;;;;;;;;;;;15.90;99.90;;;;;;5084864;28;19912;-79
2022/09/30 11:30:38;;;;;;;;;;;16.00;99.90;;;;;;5075193;28;19912;-77
2022/09/30 11:33:12;;;;;;;;;;;16.00;99.90;;;;;;5082650;28;19919;-76
2022/09/30 11:35:53;;;;;;;;;;;16.00;99.90;;;;;;5067622;28;19913;-75
2022/09/30 11:38:34;;;;;;;;;;;16.20;99.90;;;;;;5072927;28;19917;-78
2022/09/30 11:41:06;;;;;;;;;;;16.00;99.90;;;;;;5075294;28;19912;-77
2022/09/30 11:43:34;;;;;;;;;;;16.00;99.90;;;;;;5076444;28;19927;-78
2022/09/30 11:46:19;;;;;;;;;;;16.00;99.90;;;;;;5075400;28;19948;-77
2022/09/30 11:49:06;;;;;;;;;;;16.10;99.90;;;;;;5057262;28;20258;-77
2022/09/30 11:51:52;;;;;;;;;;;16.10;99.90;;;;;;5076924;28;20017;-77
2022/09/30 11:54:26;;;;;;;;;;;16.10;99.90;;;;;;5079796;28;19942;-78
2022/09/30 11:56:57;;;;;;;;;;;16.20;99.90;;;;;;5074320;28;19912;-77
2022/09/30 11:59:28;;;;;;;;;;;16.10;99.90;;;;;;5083115;28;19912;-78
2022/09/30 12:01:57;;;;;;;;;;;16.10;99.90;;;;;;5074432;28;20359;-78
2022/09/30 12:04:38;;;;;;;;;;;16.00;99.90;;;;;;5082891;28;19927;-76
2022/09/30 12:07:17;;;;;;;;;;;15.90;99.90;;;;;;5076857;28;20271;-78
2022/09/30 12:09:47;;;;;;;;;;;15.80;99.90;;;;;;5073197;28;20341;-77
2022/09/30 12:12:13;;;;;;;;;;;15.80;99.90;;;;;;5076872;28;19916;-77
2022/09/30 12:14:41;;;;;;;;;;;15.80;99.90;;;;;;5073299;28;20019;-77
2022/09/30 12:17:11;;;;;;;;;;;15.70;99.90;;;;;;5087923;28;19919;-77
2022/09/30 12:19:44;;;;;;;;;;;15.50;99.90;;;;;;5074595;28;19912;-77
2022/09/30 12:22:12;;;;;;;;;;;15.40;99.90;;;;;;5078901;28;20467;-77
2022/09/30 12:24:39;;;;;;;;;;;15.20;99.90;;;;;;5087744;28;19904;-79
2022/09/30 12:27:23;;;;;;;;;;;15.20;99.90;;;;;;5089814;28;19912;-76
2022/09/30 12:30:16;;;;;;;;;;;15.10;99.90;;;;;;5090444;28;19920;-76
2022/09/30 12:32:51;;;;;;;;;;;15.00;99.90;;;;;;5097220;28;19927;-76
2022/09/30 12:35:29;;;;;;;;;;;14.90;99.90;;;;;;5073557;28;20024;-76
2022/09/30 12:38:00;;;;;;;;;;;14.80;99.90;;;;;;5091007;28;19949;-77
2022/09/30 12:40:32;;;;;;;;;;;14.80;99.90;;;;;;5079453;28;19912;-77
2022/09/30 12:43:16;;;;;;;;;;;14.70;99.90;;;;;;5085064;28;19912;-77
2022/09/30 12:45:53;;;;;;;;;;;14.70;99.90;;;;;;5086253;28;20626;-78
2022/09/30 12:48:20;;;;;;;;;;;14.60;99.90;;;;;;5081272;28;20573;-77
2022/09/30 12:50:53;;;;;;;;;;;14.50;99.90;;;;;;5081582;28;20019;-77
2022/09/30 12:53:22;;;;;;;;;;;14.50;99.90;;;;;;5083523;28;19923;-77
2022/09/30 12:55:48;;;;;;;;;;;14.30;99.90;;;;;;5098459;28;20443;-77
2022/09/30 12:58:19;;;;;;;;;;;14.20;99.90;;;;;;5078828;28;19948;-78
2022/09/30 13:00:57;;;;;;;;;;;14.10;99.90;;;;;;5081681;28;20101;-77
2022/09/30 13:03:23;;;;;;;;;;;14.00;99.90;;;;;;5078811;28;19932;-77
2022/09/30 13:05:56;;;;;;;;;;;14.00;99.90;;;;;;5078365;28;19924;-77
2022/09/30 13:08:24;;;;;;;;;;;13.90;99.90;;;;;;5085042;28;19913;-76
2022/09/30 13:10:58;;;;;;;;;;;14.00;99.90;;;;;;5096203;28;19984;-76
2022/09/30 13:13:23;;;;;;;;;;;14.00;99.90;;;;;;5093056;28;19943;-77
2022/09/30 13:16:01;;;;;;;;;;;14.10;99.90;;;;;;5086466;28;19908;-79
2022/09/30 13:18:33;;;;;;;;;;;14.20;99.90;;;;;;5082724;28;19962;-77
2022/09/30 13:21:05;;;;;;;;;;;14.20;99.90;;;;;;5085113;28;19928;-77
2022/09/30 13:23:36;;;;;;;;;;;14.20;99.90;;;;;;5095505;28;19920;-78
2022/09/30 13:26:02;;;;;;;;;;;14.20;99.90;;;;;;5084968;28;19919;-79
2022/09/30 13:28:29;;;;;;;;;;;14.40;99.90;;;;;;5092034;28;19912;-77
2022/09/30 13:31:11;;;;;;;;;;;14.40;99.90;;;;;;5075197;28;19908;-75
2022/09/30 13:33:43;;;;;;;;;;;14.50;99.90;;;;;;5082922;28;20464;-76
2022/09/30 13:36:24;;;;;;;;;;;14.40;99.90;;;;;;5084869;28;19909;-77
2022/09/30 13:39:05;;;;;;;;;;;14.40;99.90;;;;;;5082157;28;19913;-77
2022/09/30 13:41:31;;;;;;;;;;;14.50;99.90;;;;;;5090619;28;19980;-77
2022/09/30 13:44:06;;;;;;;;;;;14.50;99.90;;;;;;5080866;28;20449;-77
2022/09/30 13:46:58;;;;;;;;;;;14.50;99.90;;;;;;5069598;28;20266;-77
2022/09/30 13:49:38;;;;;;;;;;;14.50;99.90;;;;;;5082899;28;19920;-76
2022/09/30 13:52:06;;;;;;;;;;;14.50;99.90;;;;;;5081385;28;19920;-77
2022/09/30 13:54:36;;;;;;;;;;;14.50;99.90;;;;;;5081359;28;19983;-77
2022/09/30 13:57:03;;;;;;;;;;;14.50;99.90;;;;;;5083765;28;19913;-78
2022/09/30 13:59:38;;;;;;;;;;;14.40;99.90;;;;;;5087487;28;19912;-78
2022/09/30 14:02:23;;;;;;;;;;;14.40;99.90;;;;;;5082877;28;19916;-77
2022/09/30 14:04:48;;;;;;;;;;;14.40;99.90;;;;;;5083908;28;19920;-76
2022/09/30 14:07:17;;;;;;;;;;;14.40;99.90;;;;;;5083402;28;19951;-77
2022/09/30 14:09:51;;;;;;;;;;;14.30;99.90;;;;;;5076670;28;19939;-77
2022/09/30 14:12:20;;;;;;;;;;;14.40;99.90;;;;;;5081682;28;19979;-76
2022/09/30 14:15:05;;;;;;;;;;;14.40;99.90;;;;;;5088439;28;19943;-78
2022/09/30 14:17:36;;;;;;;;;;;14.40;99.90;;;;;;5092282;28;20337;-76
2022/09/30 14:20:11;;;;;;;;;;;14.40;99.90;;;;;;5092630;28;19927;-77
2022/09/30 14:22:36;;;;;;;;;;;14.30;99.90;;;;;;5089587;28;20682;-76
2022/09/30 14:25:03;;;;;;;;;;;14.30;99.90;;;;;;5090989;28;19971;-77
2022/09/30 14:27:32;;;;;;;;;;;14.30;99.90;;;;;;5072774;28;19913;-79
2022/09/30 14:30:13;;;;;;;;;;;14.30;99.90;;;;;;5097458;28;19916;-76
2022/09/30 14:32:38;;;;;;;;;;;14.30;99.90;;;;;;5092669;28;20398;-77
2022/09/30 14:35:05;;;;;;;;;;;14.20;99.90;;;;;;5090352;28;19912;-77
2022/09/30 14:37:34;;;;;;;;;;;14.30;99.90;;;;;;5107174;28;19922;-78
2022/09/30 14:40:00;;;;;;;;;;;14.30;99.90;;;;;;5093551;28;19948;-76